Climatologie pour Saint-Brevin les Pins
Jour • Résumé pour janvier 22, 2017 Système :  Métrique    Anglais   Mixte
« - 1 jour
+ 1 jour »
Jour Semaine Mois Année Personnalisé
  Maximum : Minimum : Moyenne :
Température sous abri : 9.2 °C -3.8 °C 1.4 °C
Point de rosée : 0.9 °C -4.6 °C -1.9 °C
Humidité : 95 % 50 % 81 %
Vitesse du vent : 14.5 km/h 0.0 km/h 3.3 km/h
Rafale : 20.9 km/h - -
Direction :- - ENE
Pression : 1025.6 hPa 1022.9 hPa -
Précipitations : 0.0 mm    
Historical Graphs
 
 
Tableau de données pour janvier 22, 2017
Heure Tempé Pt rosée Pression Vent Vitesse Rafale Humidité Taux pluie (/hr) Soleil
00:00 -0.4 °C -2.0 °C 1024.3 hPa East 3.2 km/h 8.0 km/h 89 % 0.0 mm 0 W/m2
00:05 -0.3 °C -1.9 °C 1024.3 hPa East 3.2 km/h 8.0 km/h 89 % 0.0 mm 0 W/m2
00:10 -0.3 °C -1.9 °C 1024.3 hPa East 3.2 km/h 8.0 km/h 89 % 0.0 mm 0 W/m2
00:15 -0.2 °C -1.8 °C 1024.3 hPa ENE 3.2 km/h 8.0 km/h 89 % 0.0 mm 0 W/m2
00:20 -0.2 °C -1.8 °C 1024.3 hPa East 3.2 km/h 8.0 km/h 89 % 0.0 mm 0 W/m2
00:25 -0.1 °C -1.7 °C 1024.3 hPa East 1.6 km/h 8.0 km/h 89 % 0.0 mm 0 W/m2
00:30 0.0 °C -1.8 °C 1024.3 hPa East 1.6 km/h 8.0 km/h 88 % 0.0 mm 0 W/m2
00:35 0.1 °C -1.7 °C 1024.3 hPa Calm   8.0 km/h 88 % 0.0 mm 0 W/m2
00:40 0.1 °C -1.7 °C 1024.3 hPa East 3.2 km/h 8.0 km/h 88 % 0.0 mm 0 W/m2
00:45 -0.1 °C -1.7 °C 1024.3 hPa East 4.8 km/h 8.0 km/h 89 % 0.0 mm 0 W/m2
00:50 -0.1 °C -1.7 °C 1024.3 hPa East 3.2 km/h 8.0 km/h 89 % 0.0 mm 0 W/m2
00:55 -0.1 °C -1.7 °C 1024.3 hPa East 3.2 km/h 8.0 km/h 89 % 0.0 mm 0 W/m2
01:00 -0.1 °C -1.7 °C 1024.3 hPa East 3.2 km/h 8.0 km/h 89 % 0.0 mm 0 W/m2
01:10 -0.3 °C -1.9 °C 1023.9 hPa East 3.2 km/h 8.0 km/h 89 % 0.0 mm 0 W/m2
01:15 -0.5 °C -1.9 °C 1023.9 hPa Calm   8.0 km/h 90 % 0.0 mm 0 W/m2
01:20 -0.7 °C -2.1 °C 1023.9 hPa Calm   1.6 km/h 90 % 0.0 mm 0 W/m2
01:25 -0.9 °C -2.4 °C 1023.9 hPa Calm   1.6 km/h 90 % 0.0 mm 0 W/m2
01:30 -1.1 °C -2.4 °C 1023.9 hPa Calm   1.6 km/h 91 % 0.0 mm 0 W/m2
01:35 -1.0 °C -2.3 °C 1023.9 hPa Calm   1.6 km/h 91 % 0.0 mm 0 W/m2
01:40 -1.1 °C -2.4 °C 1023.9 hPa Calm   1.6 km/h 91 % 0.0 mm 0 W/m2
01:45 -1.0 °C -2.3 °C 1024.3 hPa Calm   3.2 km/h 91 % 0.0 mm 0 W/m2
01:50 -1.2 °C -2.5 °C 1023.9 hPa Calm   3.2 km/h 91 % 0.0 mm 0 W/m2
01:55 -1.6 °C -2.8 °C 1023.9 hPa Calm   3.2 km/h 91 % 0.0 mm 0 W/m2
02:00 -1.8 °C -2.9 °C 1023.9 hPa Calm   1.6 km/h 92 % 0.0 mm 0 W/m2
02:05 -1.8 °C -3.0 °C 1023.9 hPa Calm   4.8 km/h 92 % 0.0 mm 0 W/m2
02:10 -1.8 °C -2.9 °C 1023.9 hPa East 1.6 km/h 4.8 km/h 92 % 0.0 mm 0 W/m2
02:15 -1.7 °C -2.7 °C 1023.9 hPa Calm   4.8 km/h 93 % 0.0 mm 0 W/m2
02:20 -1.6 °C -2.6 °C 1023.9 hPa Calm   4.8 km/h 93 % 0.0 mm 0 W/m2
02:25 -1.7 °C -2.6 °C 1023.9 hPa NNE 1.6 km/h 3.2 km/h 93 % 0.0 mm 0 W/m2
02:30 -1.7 °C -2.7 °C 1023.6 hPa NNE 1.6 km/h 4.8 km/h 93 % 0.0 mm 0 W/m2
02:35 -1.8 °C -2.8 °C 1023.6 hPa NNE 1.6 km/h 4.8 km/h 93 % 0.0 mm 0 W/m2
02:40 -1.7 °C -2.6 °C 1023.6 hPa NE 3.2 km/h 4.8 km/h 93 % 0.0 mm 0 W/m2
02:45 -1.2 °C -2.1 °C 1023.6 hPa Calm   4.8 km/h 94 % 0.0 mm 0 W/m2
02:50 -1.3 °C -2.3 °C 1023.6 hPa NE 3.2 km/h 4.8 km/h 93 % 0.0 mm 0 W/m2
02:55 -1.3 °C -2.3 °C 1023.6 hPa Calm   4.8 km/h 93 % 0.0 mm 0 W/m2
03:00 -1.4 °C -2.5 °C 1023.6 hPa Calm   3.2 km/h 92 % 0.0 mm 0 W/m2
03:05 -1.4 °C -2.4 °C 1023.2 hPa NE 1.6 km/h 3.2 km/h 93 % 0.0 mm 0 W/m2
03:10 -1.3 °C -2.3 °C 1023.6 hPa NE 3.2 km/h 3.2 km/h 93 % 0.0 mm 0 W/m2
03:15 -1.1 °C -2.0 °C 1023.6 hPa Calm   4.8 km/h 93 % 0.0 mm 0 W/m2
03:20 -1.1 °C -2.0 °C 1023.6 hPa Calm   4.8 km/h 93 % 0.0 mm 0 W/m2
03:25 -1.1 °C -2.2 °C 1023.6 hPa ENE 1.6 km/h 4.8 km/h 92 % 0.0 mm 0 W/m2
03:30 -1.2 °C -2.4 °C 1023.6 hPa ENE 1.6 km/h 4.8 km/h 92 % 0.0 mm 0 W/m2
03:35 -1.4 °C -2.5 °C 1023.6 hPa Calm   4.8 km/h 92 % 0.0 mm 0 W/m2
03:40 -1.2 °C -2.2 °C 1023.6 hPa Calm   4.8 km/h 93 % 0.0 mm 0 W/m2
03:45 -1.3 °C -2.5 °C 1023.2 hPa ENE 3.2 km/h 4.8 km/h 92 % 0.0 mm 0 W/m2
03:55 -1.5 °C -2.6 °C 1023.2 hPa East 3.2 km/h 6.4 km/h 92 % 0.0 mm 0 W/m2
04:00 -1.4 °C -2.6 °C 1023.2 hPa ENE 1.6 km/h 6.4 km/h 92 % 0.0 mm 0 W/m2
04:05 -1.4 °C -2.5 °C 1023.2 hPa East 1.6 km/h 6.4 km/h 92 % 0.0 mm 0 W/m2
04:10 -1.4 °C -2.6 °C 1023.2 hPa Calm   4.8 km/h 92 % 0.0 mm 0 W/m2
04:15 -1.4 °C -2.6 °C 1023.2 hPa East 1.6 km/h 4.8 km/h 92 % 0.0 mm 0 W/m2
04:20 -1.6 °C -2.7 °C 1023.2 hPa East 1.6 km/h 4.8 km/h 92 % 0.0 mm 0 W/m2
04:25 -1.7 °C -2.8 °C 1023.2 hPa East 3.2 km/h 3.2 km/h 92 % 0.0 mm 0 W/m2
04:30 -1.5 °C -2.6 °C 1023.2 hPa East 3.2 km/h 4.8 km/h 92 % 0.0 mm 0 W/m2
04:35 -1.6 °C -2.7 °C 1023.2 hPa Calm   4.8 km/h 92 % 0.0 mm 0 W/m2
04:40 -1.7 °C -2.8 °C 1023.2 hPa Calm   4.8 km/h 92 % 0.0 mm 0 W/m2
04:45 -1.7 °C -2.9 °C 1023.2 hPa Calm   3.2 km/h 92 % 0.0 mm 0 W/m2
04:50 -2.0 °C -3.1 °C 1023.2 hPa Calm   3.2 km/h 92 % 0.0 mm 0 W/m2
04:55 -2.1 °C -3.2 °C 1023.2 hPa Calm   3.2 km/h 92 % 0.0 mm 0 W/m2
05:00 -2.3 °C -3.4 °C 1023.2 hPa Calm   4.8 km/h 92 % 0.0 mm 0 W/m2
05:05 -2.3 °C -3.3 °C 1023.2 hPa Calm   4.8 km/h 93 % 0.0 mm 0 W/m2
05:10 -2.6 °C -3.5 °C 1023.2 hPa East 1.6 km/h 4.8 km/h 93 % 0.0 mm 0 W/m2
05:15 -2.4 °C -3.4 °C 1023.2 hPa Calm   4.8 km/h 93 % 0.0 mm 0 W/m2
05:20 -2.5 °C -3.5 °C 1023.2 hPa Calm   3.2 km/h 93 % 0.0 mm 0 W/m2
05:25 -2.5 °C -3.5 °C 1023.2 hPa Calm   3.2 km/h 93 % 0.0 mm 0 W/m2
05:30 -2.5 °C -3.5 °C 1023.2 hPa Calm   3.2 km/h 93 % 0.0 mm 0 W/m2
05:35 -2.7 °C -3.6 °C 1023.2 hPa Calm   3.2 km/h 93 % 0.0 mm 0 W/m2
05:40 -2.7 °C -3.7 °C 1022.9 hPa East 1.6 km/h 1.6 km/h 93 % 0.0 mm 0 W/m2
05:45 -2.8 °C -3.8 °C 1022.9 hPa Calm   1.6 km/h 93 % 0.0 mm 0 W/m2
05:50 -2.7 °C -3.5 °C 1022.9 hPa Calm   3.2 km/h 94 % 0.0 mm 0 W/m2
05:55 -2.7 °C -3.6 °C 1022.9 hPa East 1.6 km/h 4.8 km/h 93 % 0.0 mm 0 W/m2
06:00 -2.8 °C -3.7 °C 1022.9 hPa East 1.6 km/h 4.8 km/h 94 % 0.0 mm 0 W/m2
06:05 -2.9 °C -3.8 °C 1022.9 hPa Calm   4.8 km/h 94 % 0.0 mm 0 W/m2
06:10 -3.0 °C -3.8 °C 1022.9 hPa East 1.6 km/h 4.8 km/h 94 % 0.0 mm 0 W/m2
06:15 -3.2 °C -4.0 °C 1022.9 hPa East 1.6 km/h 4.8 km/h 94 % 0.0 mm 0 W/m2
06:20 -3.3 °C -4.1 °C 1022.9 hPa Calm   3.2 km/h 94 % 0.0 mm 0 W/m2
06:25 -3.1 °C -3.9 °C 1022.9 hPa Calm   1.6 km/h 94 % 0.0 mm 0 W/m2
06:30 -3.1 °C -3.9 °C 1022.9 hPa Calm   1.6 km/h 94 % 0.0 mm 0 W/m2
06:35 -3.0 °C -3.8 °C 1022.9 hPa Calm   1.6 km/h 94 % 0.0 mm 0 W/m2
06:40 -2.9 °C -3.7 °C 1022.9 hPa Calm   1.6 km/h 94 % 0.0 mm 0 W/m2
06:45 -3.0 °C -3.8 °C 1022.9 hPa Calm     94 % 0.0 mm 0 W/m2
06:50 -3.1 °C -3.9 °C 1022.9 hPa Calm     94 % 0.0 mm 0 W/m2
06:55 -3.2 °C -4.0 °C 1022.9 hPa Calm     94 % 0.0 mm 0 W/m2
07:00 -2.9 °C -3.8 °C 1022.9 hPa Calm   1.6 km/h 94 % 0.0 mm 0 W/m2
07:05 -2.8 °C -3.6 °C 1022.9 hPa Calm   3.2 km/h 94 % 0.0 mm 0 W/m2
07:10 -2.9 °C -3.8 °C 1022.9 hPa Calm   3.2 km/h 94 % 0.0 mm 0 W/m2
07:15 -3.1 °C -3.9 °C 1022.9 hPa Calm   1.6 km/h 94 % 0.0 mm 0 W/m2
07:20 -3.4 °C -4.4 °C 1022.9 hPa Calm   1.6 km/h 93 % 0.0 mm 0 W/m2
07:25 -3.7 °C -4.5 °C 1022.9 hPa Calm   1.6 km/h 94 % 0.0 mm 0 W/m2
07:30 -3.8 °C -4.6 °C 1022.9 hPa Calm   4.8 km/h 94 % 0.0 mm 0 W/m2
07:35 -3.7 °C -4.5 °C 1023.2 hPa Calm   4.8 km/h 94 % 0.0 mm 0 W/m2
07:40 -3.6 °C -4.4 °C 1023.2 hPa Calm   3.2 km/h 94 % 0.0 mm 0 W/m2
07:45 -3.2 °C -3.9 °C 1023.2 hPa Calm   3.2 km/h 95 % 0.0 mm 0 W/m2
07:50 -2.9 °C -3.6 °C 1023.2 hPa East 3.2 km/h 4.8 km/h 95 % 0.0 mm 0 W/m2
07:55 -2.7 °C -3.4 °C 1023.6 hPa East 1.6 km/h 4.8 km/h 95 % 0.0 mm 0 W/m2
08:00 -2.6 °C -3.2 °C 1023.6 hPa ENE 3.2 km/h 8.0 km/h 95 % 0.0 mm 0 W/m2
08:05 -2.4 °C -3.1 °C 1023.6 hPa ENE 4.8 km/h 8.0 km/h 95 % 0.0 mm 0 W/m2
08:10 -2.5 °C -3.3 °C 1023.6 hPa ENE 3.2 km/h 8.0 km/h 94 % 0.0 mm 0 W/m2
08:15 -2.5 °C -3.3 °C 1023.6 hPa ENE 3.2 km/h 8.0 km/h 94 % 0.0 mm 0 W/m2
08:20 -2.6 °C -3.4 °C 1023.6 hPa ENE 1.6 km/h 8.0 km/h 94 % 0.0 mm 0 W/m2
08:25 -2.6 °C -3.4 °C 1023.6 hPa East 3.2 km/h 8.0 km/h 94 % 0.0 mm 0 W/m2
08:30 -2.5 °C -3.3 °C 1023.6 hPa East 1.6 km/h 8.0 km/h 94 % 0.0 mm 0 W/m2
08:35 -2.4 °C -3.3 °C 1023.6 hPa East 3.2 km/h 8.0 km/h 94 % 0.0 mm 0 W/m2
08:40 -2.5 °C -3.3 °C 1023.6 hPa East 1.6 km/h 4.8 km/h 94 % 0.0 mm 0 W/m2
08:45 -2.6 °C -3.4 °C 1023.6 hPa East 1.6 km/h 4.8 km/h 94 % 0.0 mm 0 W/m2
08:50 -2.6 °C -3.4 °C 1023.6 hPa Calm   8.0 km/h 94 % 0.0 mm 0 W/m2
08:55 -2.7 °C -3.5 °C 1023.6 hPa Calm   8.0 km/h 94 % 0.0 mm 5 W/m2
09:00 -2.6 °C -3.4 °C 1023.6 hPa Calm   8.0 km/h 94 % 0.0 mm 7 W/m2
09:05 -2.6 °C -3.4 °C 1023.6 hPa Calm   8.0 km/h 94 % 0.0 mm 9 W/m2
09:10 -2.6 °C -3.4 °C 1023.9 hPa ENE 3.2 km/h 4.8 km/h 94 % 0.0 mm 11 W/m2
09:15 -2.7 °C -3.6 °C 1023.9 hPa ENE 1.6 km/h 4.8 km/h 94 % 0.0 mm 12 W/m2
09:20 -2.9 °C -3.8 °C 1023.9 hPa Calm   4.8 km/h 94 % 0.0 mm 16 W/m2
09:25 -2.9 °C -3.8 °C 1023.9 hPa Calm   4.8 km/h 94 % 0.0 mm 21 W/m2
09:30 -2.7 °C -3.6 °C 1023.9 hPa NE 1.6 km/h 6.4 km/h 94 % 0.0 mm 23 W/m2
09:35 -2.5 °C -3.2 °C 1023.9 hPa ENE 6.4 km/h 8.0 km/h 95 % 0.0 mm 23 W/m2
09:40 -2.3 °C -3.2 °C 1023.9 hPa Calm   8.0 km/h 94 % 0.0 mm 25 W/m2
09:45 -2.2 °C -3.0 °C 1023.9 hPa NE 1.6 km/h 6.4 km/h 94 % 0.0 mm 26 W/m2
09:50 -1.8 °C -2.7 °C 1024.3 hPa Calm   4.8 km/h 94 % 0.0 mm 28 W/m2
09:55 -1.6 °C -2.4 °C 1023.9 hPa Calm   4.8 km/h 94 % 0.0 mm 30 W/m2
10:00 -1.3 °C -2.1 °C 1023.9 hPa NE 4.8 km/h 4.8 km/h 94 % 0.0 mm 32 W/m2
10:05 -1.1 °C -2.0 °C 1023.9 hPa East 1.6 km/h 8.0 km/h 93 % 0.0 mm 32 W/m2
10:10 -0.9 °C -1.9 °C 1024.3 hPa East 4.8 km/h 8.0 km/h 93 % 0.0 mm 33 W/m2
10:15 -0.7 °C -1.7 °C 1023.9 hPa Calm   8.0 km/h 93 % 0.0 mm 33 W/m2
10:20 -0.6 °C -1.6 °C 1024.3 hPa Calm   8.0 km/h 93 % 0.0 mm 35 W/m2
10:25 -0.5 °C -1.6 °C 1024.3 hPa NE 3.2 km/h 4.8 km/h 92 % 0.0 mm 62 W/m2
10:30 -0.3 °C -1.3 °C 1024.3 hPa ENE 4.8 km/h 8.0 km/h 93 % 0.0 mm 158 W/m2
10:35 -0.1 °C -1.1 °C 1024.3 hPa ENE 3.2 km/h 8.0 km/h 93 % 0.0 mm 204 W/m2
10:40 0.1 °C -1.1 °C 1024.3 hPa ENE 11.3 km/h 11.3 km/h 92 % 0.0 mm 199 W/m2
10:45 0.3 °C -1.0 °C 1024.3 hPa ENE 6.4 km/h 11.3 km/h 91 % 0.0 mm 202 W/m2
10:50 0.4 °C -0.9 °C 1024.6 hPa ENE 6.4 km/h 11.3 km/h 91 % 0.0 mm 214 W/m2
10:55 0.8 °C -0.7 °C 1024.6 hPa NNE 3.2 km/h 11.3 km/h 90 % 0.0 mm 227 W/m2
11:00 0.9 °C -0.7 °C 1024.6 hPa Calm   9.7 km/h 89 % 0.0 mm 239 W/m2
11:05 1.2 °C -0.6 °C 1024.3 hPa ENE 4.8 km/h 11.3 km/h 88 % 0.0 mm 251 W/m2
11:10 1.4 °C -0.6 °C 1024.6 hPa East 4.8 km/h 12.9 km/h 86 % 0.0 mm 262 W/m2
11:15 1.6 °C -0.6 °C 1024.6 hPa ENE 3.2 km/h 14.5 km/h 85 % 0.0 mm 269 W/m2
11:20 1.8 °C -0.5 °C 1024.6 hPa ENE 3.2 km/h 14.5 km/h 85 % 0.0 mm 278 W/m2
11:25 2.0 °C -0.4 °C 1024.6 hPa ENE 4.8 km/h 11.3 km/h 84 % 0.0 mm 209 W/m2
11:30 2.0 °C -0.6 °C 1024.6 hPa ENE 1.6 km/h 12.9 km/h 83 % 0.0 mm 301 W/m2
11:35 2.3 °C -0.3 °C 1024.6 hPa ENE 11.3 km/h 12.9 km/h 83 % 0.0 mm 297 W/m2
11:40 2.3 °C -0.4 °C 1024.6 hPa ENE 8.0 km/h 14.5 km/h 82 % 0.0 mm 306 W/m2
11:45 2.7 °C -0.3 °C 1024.6 hPa ENE 8.0 km/h 14.5 km/h 81 % 0.0 mm 309 W/m2
11:50 2.8 °C -0.1 °C 1024.6 hPa ENE 8.0 km/h 12.9 km/h 81 % 0.0 mm 313 W/m2
11:55 3.2 °C 0.0 °C 1024.6 hPa East 8.0 km/h 11.3 km/h 80 % 0.0 mm 318 W/m2
12:00 3.3 °C 0.2 °C 1024.6 hPa East 12.9 km/h 14.5 km/h 80 % 0.0 mm 323 W/m2
12:05 3.6 °C 0.1 °C 1024.6 hPa ENE 8.0 km/h 14.5 km/h 78 % 0.0 mm 322 W/m2
12:10 3.7 °C 0.1 °C 1024.6 hPa NE 8.0 km/h 14.5 km/h 77 % 0.0 mm 332 W/m2
12:15 3.9 °C 0.0 °C 1024.6 hPa ENE 6.4 km/h 12.9 km/h 76 % 0.0 mm 339 W/m2
12:20 4.1 °C 0.1 °C 1024.6 hPa ENE 6.4 km/h 12.9 km/h 75 % 0.0 mm 341 W/m2
12:25 4.4 °C 0.0 °C 1024.6 hPa East 9.7 km/h 12.9 km/h 73 % 0.0 mm 345 W/m2
12:30 4.7 °C 0.2 °C 1024.3 hPa East 4.8 km/h 12.9 km/h 73 % 0.0 mm 350 W/m2
12:35 5.3 °C 0.6 °C 1024.3 hPa ENE 3.2 km/h 12.9 km/h 72 % 0.0 mm 352 W/m2
12:40 5.3 °C 0.1 °C 1024.3 hPa ENE 6.4 km/h 11.3 km/h 69 % 0.0 mm 359 W/m2
12:45 5.4 °C 0.0 °C 1024.3 hPa ENE 6.4 km/h 14.5 km/h 68 % 0.0 mm 359 W/m2
12:50 5.7 °C 0.2 °C 1024.3 hPa ENE 8.0 km/h 14.5 km/h 68 % 0.0 mm 362 W/m2
12:55 5.6 °C 0.0 °C 1024.3 hPa ENE 12.9 km/h 16.1 km/h 67 % 0.0 mm 362 W/m2
13:00 5.7 °C -0.1 °C 1024.3 hPa East 9.7 km/h 16.1 km/h 66 % 0.0 mm 362 W/m2
13:05 6.0 °C 0.3 °C 1024.3 hPa ENE 8.0 km/h 14.5 km/h 67 % 0.0 mm 362 W/m2
13:10 6.1 °C -0.2 °C 1024.3 hPa NNE 3.2 km/h 14.5 km/h 64 % 0.0 mm 364 W/m2
13:15 6.4 °C 0.1 °C 1023.9 hPa ENE 12.9 km/h 12.9 km/h 64 % 0.0 mm 359 W/m2
13:20 6.8 °C 0.3 °C 1023.9 hPa NE 3.2 km/h 12.9 km/h 63 % 0.0 mm 371 W/m2
13:25 6.6 °C -0.2 °C 1023.9 hPa East 3.2 km/h 12.9 km/h 62 % 0.0 mm 371 W/m2
13:30 7.0 °C 0.9 °C 1023.9 hPa ENE 3.2 km/h 12.9 km/h 65 % 0.0 mm 367 W/m2
13:35 7.1 °C 0.7 °C 1023.9 hPa ENE 6.4 km/h 12.9 km/h 64 % 0.0 mm 366 W/m2
13:40 6.9 °C 0.1 °C 1023.9 hPa East 9.7 km/h 14.5 km/h 62 % 0.0 mm 366 W/m2
13:45 7.1 °C 0.3 °C 1023.9 hPa ENE 4.8 km/h 14.5 km/h 62 % 0.0 mm 360 W/m2
13:50 7.3 °C 0.3 °C 1023.6 hPa ENE 8.0 km/h 14.5 km/h 61 % 0.0 mm 357 W/m2
13:55 7.4 °C 0.6 °C 1023.6 hPa ENE 8.0 km/h 14.5 km/h 62 % 0.0 mm 357 W/m2
14:00 7.7 °C 0.6 °C 1023.6 hPa East 8.0 km/h 14.5 km/h 61 % 0.0 mm 352 W/m2
14:05 7.8 °C 0.5 °C 1023.6 hPa ENE 6.4 km/h 14.5 km/h 60 % 0.0 mm 346 W/m2
14:10 8.2 °C 0.9 °C 1023.6 hPa ENE 11.3 km/h 12.9 km/h 60 % 0.0 mm 345 W/m2
14:15 8.3 °C 0.8 °C 1023.6 hPa ENE 6.4 km/h 11.3 km/h 59 % 0.0 mm 339 W/m2
14:20 8.3 °C 0.3 °C 1023.2 hPa East 4.8 km/h 14.5 km/h 57 % 0.0 mm 338 W/m2
14:25 8.4 °C 0.6 °C 1023.2 hPa ENE 3.2 km/h 16.1 km/h 58 % 0.0 mm 334 W/m2
14:30 8.7 °C 0.1 °C 1023.2 hPa ENE 6.4 km/h 17.7 km/h 55 % 0.0 mm 329 W/m2
14:35 8.9 °C -0.2 °C 1023.2 hPa ENE 6.4 km/h 17.7 km/h 53 % 0.0 mm 323 W/m2
14:40 8.7 °C -0.3 °C 1023.2 hPa ENE 14.5 km/h 19.3 km/h 53 % 0.0 mm 316 W/m2
14:45 8.9 °C -0.4 °C 1023.2 hPa ENE 12.9 km/h 19.3 km/h 52 % 0.0 mm 313 W/m2
14:50 8.9 °C -0.4 °C 1023.2 hPa East 6.4 km/h 16.1 km/h 52 % 0.0 mm 306 W/m2
14:55 8.9 °C -0.1 °C 1023.2 hPa East 12.9 km/h 16.1 km/h 53 % 0.0 mm 299 W/m2
15:00 9.1 °C -0.2 °C 1023.2 hPa East 8.0 km/h 14.5 km/h 52 % 0.0 mm 292 W/m2
15:05 9.1 °C -0.6 °C 1023.2 hPa East 3.2 km/h 16.1 km/h 51 % 0.0 mm 287 W/m2
15:10 9.1 °C -0.5 °C 1023.2 hPa East 14.5 km/h 17.7 km/h 51 % 0.0 mm 279 W/m2
15:15 9.1 °C -0.2 °C 1023.2 hPa ENE 11.3 km/h 17.7 km/h 52 % 0.0 mm 276 W/m2
15:20 9.2 °C -0.7 °C 1023.2 hPa ESE 11.3 km/h 17.7 km/h 50 % 0.0 mm 262 W/m2
15:25 9.0 °C -0.3 °C 1023.2 hPa ENE 11.3 km/h 20.9 km/h 52 % 0.0 mm 264 W/m2
15:30 9.1 °C -0.6 °C 1023.2 hPa East 4.8 km/h 20.9 km/h 51 % 0.0 mm 246 W/m2
15:35 9.2 °C -0.2 °C 1023.2 hPa East 3.2 km/h 17.7 km/h 52 % 0.0 mm 250 W/m2
15:40 9.2 °C -0.5 °C 1023.2 hPa ENE 8.0 km/h 16.1 km/h 51 % 0.0 mm 241 W/m2
15:45 9.2 °C -0.2 °C 1023.2 hPa East 4.8 km/h 16.1 km/h 52 % 0.0 mm 237 W/m2
15:50 9.1 °C -0.5 °C 1023.2 hPa ENE 4.8 km/h 16.1 km/h 51 % 0.0 mm 232 W/m2
15:55 9.2 °C -0.5 °C 1023.2 hPa East 3.2 km/h 16.1 km/h 51 % 0.0 mm 211 W/m2
16:00 9.1 °C -0.8 °C 1023.2 hPa ENE 8.0 km/h 16.1 km/h 50 % 0.0 mm 223 W/m2
16:05 9.0 °C -0.6 °C 1023.2 hPa East 8.0 km/h 16.1 km/h 51 % 0.0 mm 220 W/m2
16:10 9.1 °C -0.2 °C 1023.2 hPa ENE 11.3 km/h 14.5 km/h 52 % 0.0 mm 204 W/m2
16:15 8.9 °C -0.9 °C 1023.2 hPa East 8.0 km/h 12.9 km/h 50 % 0.0 mm 146 W/m2
16:20 8.8 °C -1.1 °C 1023.6 hPa East 11.3 km/h 14.5 km/h 50 % 0.0 mm 142 W/m2
16:25 8.7 °C -0.9 °C 1023.6 hPa ENE 4.8 km/h 14.5 km/h 51 % 0.0 mm 104 W/m2
16:30 8.5 °C -0.5 °C 1023.6 hPa ENE 8.0 km/h 12.9 km/h 53 % 0.0 mm 81 W/m2
16:35 8.2 °C -0.8 °C 1023.6 hPa ENE 1.6 km/h 14.5 km/h 53 % 0.0 mm 70 W/m2
16:40 8.0 °C -0.5 °C 1023.6 hPa East 4.8 km/h 14.5 km/h 55 % 0.0 mm 70 W/m2
16:50 7.8 °C -1.2 °C 1023.6 hPa ENE 3.2 km/h 14.5 km/h 53 % 0.0 mm 65 W/m2
16:55 7.8 °C -1.2 °C 1023.6 hPa East 4.8 km/h 12.9 km/h 53 % 0.0 mm 65 W/m2
17:00 7.6 °C -1.1 °C 1023.6 hPa ENE 1.6 km/h 12.9 km/h 54 % 0.0 mm 62 W/m2
17:05 7.5 °C -1.0 °C 1023.6 hPa East 8.0 km/h 11.3 km/h 55 % 0.0 mm 58 W/m2
17:10 7.4 °C -1.3 °C 1023.9 hPa NE 3.2 km/h 11.3 km/h 54 % 0.0 mm 51 W/m2
17:15 7.2 °C -1.3 °C 1023.9 hPa ENE 4.8 km/h 11.3 km/h 55 % 0.0 mm 44 W/m2
17:20 6.9 °C -1.2 °C 1023.9 hPa ENE 1.6 km/h 9.7 km/h 56 % 0.0 mm 39 W/m2
17:25 6.8 °C -1.2 °C 1023.9 hPa ENE 4.8 km/h 11.3 km/h 57 % 0.0 mm 33 W/m2
17:30 6.6 °C -1.1 °C 1023.9 hPa ENE 3.2 km/h 11.3 km/h 58 % 0.0 mm 28 W/m2
17:35 6.4 °C -1.0 °C 1024.3 hPa ENE 3.2 km/h 11.3 km/h 59 % 0.0 mm 23 W/m2
17:40 6.2 °C -1.0 °C 1024.3 hPa ENE 4.8 km/h 11.3 km/h 60 % 0.0 mm 16 W/m2
17:45 5.8 °C -1.1 °C 1023.9 hPa ENE 4.8 km/h 11.3 km/h 61 % 0.0 mm 11 W/m2
17:50 5.6 °C -1.1 °C 1023.9 hPa ENE 1.6 km/h 11.3 km/h 62 % 0.0 mm 7 W/m2
17:55 5.3 °C -1.2 °C 1023.9 hPa Calm   8.0 km/h 63 % 0.0 mm 0 W/m2
18:00 5.1 °C -1.1 °C 1023.9 hPa Calm   8.0 km/h 64 % 0.0 mm 0 W/m2
18:05 4.8 °C -1.0 °C 1024.3 hPa NE 3.2 km/h 8.0 km/h 66 % 0.0 mm 0 W/m2
18:10 4.5 °C -1.1 °C 1024.3 hPa ENE 6.4 km/h 9.7 km/h 67 % 0.0 mm 0 W/m2
18:15 4.4 °C -1.0 °C 1024.3 hPa ENE 1.6 km/h 9.7 km/h 68 % 0.0 mm 0 W/m2
18:20 4.3 °C -1.1 °C 1024.3 hPa ENE 3.2 km/h 9.7 km/h 68 % 0.0 mm 0 W/m2
18:25 4.3 °C -0.9 °C 1024.3 hPa ENE 8.0 km/h 11.3 km/h 69 % 0.0 mm 0 W/m2
18:30 4.3 °C -0.9 °C 1024.3 hPa East 3.2 km/h 11.3 km/h 69 % 0.0 mm 0 W/m2
18:35 4.1 °C -0.9 °C 1024.3 hPa ENE 6.4 km/h 9.7 km/h 70 % 0.0 mm 0 W/m2
18:40 3.7 °C -1.1 °C 1024.3 hPa ENE 3.2 km/h 9.7 km/h 71 % 0.0 mm 0 W/m2
18:45 3.6 °C -1.2 °C 1024.3 hPa ENE 1.6 km/h 8.0 km/h 71 % 0.0 mm 0 W/m2
18:50 3.3 °C -1.2 °C 1024.3 hPa ENE 3.2 km/h 8.0 km/h 72 % 0.0 mm 0 W/m2
18:55 3.1 °C -1.5 °C 1024.3 hPa ENE 6.4 km/h 8.0 km/h 72 % 0.0 mm 0 W/m2
19:00 2.6 °C -1.6 °C 1024.3 hPa ENE 1.6 km/h 8.0 km/h 74 % 0.0 mm 0 W/m2
19:05 2.3 °C -1.7 °C 1024.6 hPa ENE 3.2 km/h 8.0 km/h 75 % 0.0 mm 0 W/m2
19:10 2.3 °C -1.7 °C 1024.6 hPa ENE 4.8 km/h 8.0 km/h 75 % 0.0 mm 0 W/m2
19:15 2.4 °C -1.5 °C 1024.6 hPa ENE 1.6 km/h 6.4 km/h 75 % 0.0 mm 0 W/m2
19:20 2.0 °C -2.0 °C 1024.6 hPa ENE 1.6 km/h 6.4 km/h 75 % 0.0 mm 0 W/m2
19:25 2.0 °C -1.6 °C 1024.6 hPa East 1.6 km/h 8.0 km/h 77 % 0.0 mm 0 W/m2
19:30 2.1 °C -1.7 °C 1024.6 hPa East 1.6 km/h 8.0 km/h 76 % 0.0 mm 0 W/m2
19:35 1.6 °C -2.2 °C 1024.6 hPa NE 3.2 km/h 8.0 km/h 76 % 0.0 mm 0 W/m2
19:40 1.5 °C -2.1 °C 1024.6 hPa NE 3.2 km/h 8.0 km/h 77 % 0.0 mm 0 W/m2
19:45 1.4 °C -2.0 °C 1024.9 hPa ENE 1.6 km/h 8.0 km/h 78 % 0.0 mm 0 W/m2
19:50 1.4 °C -2.0 °C 1024.9 hPa NE 3.2 km/h 8.0 km/h 78 % 0.0 mm 0 W/m2
19:55 1.3 °C -2.1 °C 1024.6 hPa NE 3.2 km/h 6.4 km/h 78 % 0.0 mm 0 W/m2
20:00 1.2 °C -2.2 °C 1024.9 hPa Calm   4.8 km/h 78 % 0.0 mm 0 W/m2
20:05 0.9 °C -2.3 °C 1024.9 hPa NE 3.2 km/h 4.8 km/h 79 % 0.0 mm 0 W/m2
20:10 0.7 °C -2.3 °C 1024.9 hPa Calm   4.8 km/h 80 % 0.0 mm 0 W/m2
20:15 0.7 °C -2.3 °C 1024.9 hPa Calm   6.4 km/h 80 % 0.0 mm 0 W/m2
20:20 0.7 °C -2.2 °C 1024.9 hPa Calm   6.4 km/h 81 % 0.0 mm 0 W/m2
20:25 0.6 °C -2.2 °C 1024.9 hPa Calm   4.8 km/h 82 % 0.0 mm 0 W/m2
20:30 0.7 °C -1.9 °C 1024.9 hPa NNE 1.6 km/h 4.8 km/h 83 % 0.0 mm 0 W/m2
20:35 0.6 °C -2.1 °C 1024.9 hPa NNE 1.6 km/h 4.8 km/h 82 % 0.0 mm 0 W/m2
20:40 0.4 °C -2.1 °C 1024.9 hPa Calm   4.8 km/h 83 % 0.0 mm 0 W/m2
20:45 0.3 °C -2.2 °C 1024.9 hPa NNE 4.8 km/h 4.8 km/h 83 % 0.0 mm 0 W/m2
20:50 0.3 °C -2.1 °C 1024.9 hPa Calm   6.4 km/h 84 % 0.0 mm 0 W/m2
20:55 0.4 °C -2.1 °C 1024.6 hPa NNE 1.6 km/h 6.4 km/h 83 % 0.0 mm 0 W/m2
21:00 0.6 °C -2.2 °C 1024.6 hPa NE 4.8 km/h 6.4 km/h 82 % 0.0 mm 0 W/m2
21:05 0.6 °C -2.0 °C 1024.6 hPa NE 1.6 km/h 6.4 km/h 83 % 0.0 mm 0 W/m2
21:10 0.6 °C -2.1 °C 1024.6 hPa NE 3.2 km/h 6.4 km/h 82 % 0.0 mm 0 W/m2
21:15 0.6 °C -2.1 °C 1024.9 hPa NE 1.6 km/h 6.4 km/h 82 % 0.0 mm 0 W/m2
21:20 0.9 °C -2.0 °C 1024.9 hPa NE 3.2 km/h 9.7 km/h 81 % 0.0 mm 0 W/m2
21:25 1.1 °C -2.0 °C 1024.9 hPa NE 4.8 km/h 11.3 km/h 80 % 0.0 mm 0 W/m2
21:30 1.1 °C -2.2 °C 1024.9 hPa Calm   11.3 km/h 79 % 0.0 mm 0 W/m2
21:35 1.1 °C -2.2 °C 1024.9 hPa NNE 4.8 km/h 9.7 km/h 79 % 0.0 mm 0 W/m2
21:40 0.9 °C -2.3 °C 1024.9 hPa ENE 3.2 km/h 9.7 km/h 79 % 0.0 mm 0 W/m2
21:45 0.6 °C -2.7 °C 1024.9 hPa NNE 3.2 km/h 8.0 km/h 79 % 0.0 mm 0 W/m2
21:50 0.6 °C -2.5 °C 1024.9 hPa NE 4.8 km/h 8.0 km/h 80 % 0.0 mm 0 W/m2
21:55 0.4 °C -2.7 °C 1024.9 hPa NE 4.8 km/h 8.0 km/h 80 % 0.0 mm 0 W/m2
22:00 0.4 °C -2.4 °C 1024.9 hPa NE 4.8 km/h 8.0 km/h 81 % 0.0 mm 0 W/m2
22:05 0.3 °C -2.5 °C 1024.9 hPa ENE 4.8 km/h 8.0 km/h 81 % 0.0 mm 0 W/m2
22:10 0.1 °C -2.6 °C 1024.9 hPa NE 3.2 km/h 8.0 km/h 82 % 0.0 mm 0 W/m2
22:15 -0.2 °C -2.9 °C 1024.9 hPa NE 6.4 km/h 9.7 km/h 82 % 0.0 mm 0 W/m2
22:20 -0.4 °C -3.0 °C 1024.9 hPa NNE 1.6 km/h 9.7 km/h 83 % 0.0 mm 0 W/m2
22:25 -0.5 °C -2.9 °C 1024.9 hPa NNE 1.6 km/h 6.4 km/h 84 % 0.0 mm 0 W/m2
22:30 -0.7 °C -3.1 °C 1024.9 hPa NNE 3.2 km/h 8.0 km/h 84 % 0.0 mm 0 W/m2
22:35 -0.8 °C -3.0 °C 1024.9 hPa NE 1.6 km/h 8.0 km/h 85 % 0.0 mm 0 W/m2
22:40 -0.8 °C -3.0 °C 1024.9 hPa NE 3.2 km/h 6.4 km/h 85 % 0.0 mm 0 W/m2
22:45 -0.7 °C -2.9 °C 1025.3 hPa NE 3.2 km/h 8.0 km/h 85 % 0.0 mm 0 W/m2
22:50 -0.6 °C -2.7 °C 1025.3 hPa NE 1.6 km/h 8.0 km/h 86 % 0.0 mm 0 W/m2
22:55 -0.3 °C -2.5 °C 1025.3 hPa NE 4.8 km/h 9.7 km/h 85 % 0.0 mm 0 W/m2
23:00 0.1 °C -2.3 °C 1025.3 hPa NE 6.4 km/h 9.7 km/h 84 % 0.0 mm 0 W/m2
23:05 0.2 °C -2.3 °C 1025.3 hPa NE 4.8 km/h 9.7 km/h 83 % 0.0 mm 0 W/m2
23:10 0.1 °C -2.3 °C 1025.3 hPa NE 6.4 km/h 8.0 km/h 84 % 0.0 mm 0 W/m2
23:15 0.1 °C -2.3 °C 1025.3 hPa NNE 4.8 km/h 8.0 km/h 84 % 0.0 mm 0 W/m2
23:20 0.2 °C -2.2 °C 1025.3 hPa NE 3.2 km/h 8.0 km/h 84 % 0.0 mm 0 W/m2
23:25 0.1 °C -2.3 °C 1025.3 hPa NNE 3.2 km/h 9.7 km/h 84 % 0.0 mm 0 W/m2
23:30 0.1 °C -2.3 °C 1025.3 hPa NNE 3.2 km/h 9.7 km/h 84 % 0.0 mm 0 W/m2
23:35 -0.3 °C -2.7 °C 1025.3 hPa North 1.6 km/h 6.4 km/h 84 % 0.0 mm 0 W/m2
23:40 -0.5 °C -2.7 °C 1025.3 hPa North 3.2 km/h 6.4 km/h 85 % 0.0 mm 0 W/m2
23:45 -0.9 °C -3.1 °C 1025.3 hPa North 3.2 km/h 6.4 km/h 85 % 0.0 mm 0 W/m2
23:50 -1.0 °C -2.9 °C 1025.3 hPa NNE 1.6 km/h 6.4 km/h 87 % 0.0 mm 0 W/m2
23:55 -1.0 °C -2.9 °C 1025.6 hPa NNE 1.6 km/h 8.0 km/h 87 % 0.0 mm 0 W/m2
Avec l'autorisation de Weather Underground - 1.75 mb